createdAt,value
2022-09-30T00:05:00.401Z,7.82
2022-09-30T00:10:24.853Z,5.78
2022-09-30T00:15:51.181Z,6.18
2022-09-30T00:21:18.129Z,4.80
2022-09-30T00:26:43.180Z,6.28
2022-09-30T00:32:07.627Z,5.18
2022-09-30T00:37:34.441Z,10.15
2022-09-30T00:43:00.114Z,7.75
2022-09-30T00:48:31.760Z,10.02
2022-09-30T00:54:01.942Z,6.45
2022-09-30T00:59:33.318Z,7.97
2022-09-30T01:04:58.505Z,6.97
2022-09-30T01:10:27.200Z,10.65
2022-09-30T01:16:30.644Z,11.20
2022-09-30T01:22:22.596Z,11.93
2022-09-30T01:28:14.183Z,10.93
2022-09-30T01:33:49.574Z,10.30
2022-09-30T01:39:27.922Z,9.48
2022-09-30T01:45:03.334Z,13.57
2022-09-30T01:50:41.150Z,11.07
2022-09-30T01:56:13.414Z,11.60
2022-09-30T02:01:40.900Z,13.70
2022-09-30T02:07:11.570Z,18.25
2022-09-30T02:12:45.716Z,19.38
2022-09-30T02:18:19.914Z,29.17
2022-09-30T02:23:50.546Z,29.10
2022-09-30T02:29:19.443Z,41.53
2022-09-30T02:34:48.794Z,48.67
2022-09-30T02:40:22.984Z,58.75
2022-09-30T02:45:52.543Z,55.70
2022-09-30T02:51:23.246Z,48.13
2022-09-30T02:56:55.651Z,51.53
2022-09-30T03:02:21.555Z,42.45
2022-09-30T03:07:47.933Z,43.15
2022-09-30T03:13:29.430Z,40.78
2022-09-30T03:19:09.977Z,40.42
2022-09-30T03:24:56.033Z,32.42
2022-09-30T03:30:27.009Z,34.88
2022-09-30T03:36:00.434Z,27.25
2022-09-30T03:41:33.988Z,26.38
2022-09-30T03:47:05.140Z,20.45
2022-09-30T03:52:33.497Z,25.80
2022-09-30T03:57:58.493Z,27.33
2022-09-30T04:03:24.495Z,28.58
2022-09-30T04:08:49.381Z,23.23
2022-09-30T04:14:15.146Z,25.40
2022-09-30T04:19:43.179Z,18.38
2022-09-30T04:25:08.880Z,23.13
2022-09-30T04:30:33.820Z,19.52
2022-09-30T04:36:01.151Z,17.90
2022-09-30T04:41:26.954Z,18.05
2022-09-30T04:46:52.610Z,22.52
2022-09-30T04:52:20.215Z,20.50
2022-09-30T04:57:47.157Z,19.83
2022-09-30T05:03:11.137Z,23.85
2022-09-30T05:08:38.835Z,31.35
2022-09-30T05:14:09.899Z,35.53
2022-09-30T05:19:34.488Z,39.42
2022-09-30T05:25:00.009Z,47.38
2022-09-30T05:30:24.188Z,54.13
2022-09-30T05:35:48.297Z,53.28
2022-09-30T05:41:15.603Z,48.70
2022-09-30T05:46:39.767Z,46.75
2022-09-30T05:52:04.122Z,41.72
2022-09-30T05:57:30.168Z,39.75
2022-09-30T06:02:54.948Z,28.27
2022-09-30T06:08:18.934Z,24.10
2022-09-30T06:13:45.613Z,19.33
2022-09-30T06:19:14.834Z,21.23
2022-09-30T06:24:39.693Z,18.23
2022-09-30T06:30:08.310Z,19.33
2022-09-30T06:35:34.114Z,13.85
2022-09-30T06:41:00.320Z,15.75
2022-09-30T06:46:30.854Z,14.10
2022-09-30T06:51:55.507Z,16.35
2022-09-30T06:57:22.705Z,15.25
2022-09-30T07:02:48.779Z,17.90
2022-09-30T07:08:13.838Z,14.57
2022-09-30T07:13:38.412Z,12.80
2022-09-30T07:19:06.906Z,15.52
2022-09-30T07:24:31.057Z,13.25
2022-09-30T07:30:09.242Z,12.02
2022-09-30T07:35:38.089Z,9.35
2022-09-30T07:41:06.871Z,10.07
2022-09-30T07:46:33.202Z,8.98
2022-09-30T07:51:59.738Z,5.72
2022-09-30T07:57:23.666Z,4.60
2022-09-30T08:02:49.443Z,4.13
2022-09-30T08:08:16.237Z,3.40
2022-09-30T08:13:41.061Z,3.40
2022-09-30T08:19:06.072Z,3.50
2022-09-30T08:24:31.611Z,6.28
2022-09-30T08:29:59.182Z,11.57
2022-09-30T08:35:24.731Z,3.17
2022-09-30T08:41:03.529Z,4.70
2022-09-30T08:46:42.655Z,4.00
2022-09-30T08:52:24.473Z,3.80
2022-09-30T08:57:57.798Z,6.85
2022-09-30T09:03:31.025Z,6.38
2022-09-30T09:09:12.668Z,4.25
2022-09-30T09:14:53.065Z,9.30
2022-09-30T09:20:20.268Z,11.77
2022-09-30T09:25:46.382Z,12.35
2022-09-30T09:31:17.987Z,9.63
2022-09-30T09:36:56.901Z,16.75
2022-09-30T09:42:50.392Z,38.53
2022-09-30T09:48:17.510Z,18.05
2022-09-30T09:53:48.324Z,10.40
2022-09-30T09:59:18.207Z,15.65
2022-09-30T10:04:59.943Z,14.70
2022-09-30T10:10:25.882Z,14.38
2022-09-30T10:15:52.130Z,13.23
2022-09-30T10:21:23.304Z,17.95
2022-09-30T10:26:49.333Z,16.23
2022-09-30T10:32:14.865Z,28.63
2022-09-30T10:37:52.647Z,22.05
2022-09-30T10:43:26.425Z,20.60
2022-09-30T10:48:54.351Z,27.80
2022-09-30T10:54:50.314Z,17.97
2022-09-30T11:00:18.887Z,18.92
2022-09-30T11:05:46.399Z,16.70
2022-09-30T11:11:17.022Z,17.55
2022-09-30T11:16:48.684Z,13.40
2022-09-30T11:22:29.396Z,21.10
2022-09-30T11:28:09.527Z,15.27
2022-09-30T11:33:59.167Z,20.42
2022-09-30T11:39:56.290Z,18.52
2022-09-30T11:45:35.974Z,6.20
2022-09-30T11:51:11.609Z,8.02
2022-09-30T11:56:47.065Z,8.77
2022-09-30T12:02:32.472Z,10.82
2022-09-30T12:08:04.400Z,14.68
2022-09-30T12:13:33.393Z,10.15
2022-09-30T12:19:05.506Z,10.55
2022-09-30T12:24:36.874Z,14.13
2022-09-30T12:30:21.084Z,11.40
2022-09-30T12:36:10.800Z,9.07
2022-09-30T12:41:55.005Z,9.65
2022-09-30T12:47:35.684Z,8.75
2022-09-30T12:53:14.132Z,7.60
2022-09-30T12:58:45.324Z,10.45
2022-09-30T13:04:18.742Z,9.87
2022-09-30T13:10:00.645Z,16.48
2022-09-30T13:15:43.575Z,11.80
2022-09-30T13:21:26.778Z,21.98
2022-09-30T13:27:09.553Z,16.52
2022-09-30T13:32:37.163Z,19.13
2022-09-30T13:38:16.919Z,14.35
2022-09-30T13:43:46.551Z,14.65
2022-09-30T13:49:16.267Z,20.05
2022-09-30T13:54:47.767Z,26.35
2022-09-30T14:00:18.282Z,21.27
2022-09-30T14:06:06.349Z,12.85
2022-09-30T14:11:53.406Z,17.65
2022-09-30T14:17:34.938Z,11.13
2022-09-30T14:23:01.856Z,16.38
2022-09-30T14:28:34.720Z,16.17
2022-09-30T14:34:02.809Z,16.77
2022-09-30T14:39:32.132Z,30.20
2022-09-30T14:45:04.629Z,18.67
2022-09-30T14:50:36.465Z,19.48
2022-09-30T14:56:02.379Z,16.83
2022-09-30T15:01:32.488Z,13.55
2022-09-30T15:07:01.287Z,18.00
2022-09-30T15:12:26.840Z,16.48
2022-09-30T15:17:54.560Z,22.02
2022-09-30T15:23:25.388Z,20.40
2022-09-30T15:28:49.804Z,25.92
2022-09-30T15:34:20.478Z,13.95
2022-09-30T15:40:07.711Z,15.82
2022-09-30T15:45:37.048Z,10.77
2022-09-30T15:51:02.072Z,16.95
2022-09-30T15:56:34.983Z,16.45
2022-09-30T16:02:02.206Z,14.48
2022-09-30T16:07:29.016Z,15.63
2022-09-30T16:12:54.781Z,8.55
2022-09-30T16:18:24.914Z,11.30
2022-09-30T16:23:49.213Z,9.82
2022-09-30T16:29:17.712Z,7.22
2022-09-30T16:34:42.368Z,11.75
2022-09-30T16:40:19.728Z,10.27
2022-09-30T16:45:45.335Z,7.32
2022-09-30T16:51:15.421Z,7.85
2022-09-30T16:56:40.499Z,9.60
2022-09-30T17:02:06.663Z,6.63
2022-09-30T17:07:31.880Z,8.13
2022-09-30T17:13:00.111Z,12.48
2022-09-30T17:18:26.078Z,7.07
2022-09-30T17:29:33.460Z,9.80
2022-09-30T17:34:59.055Z,7.22
2022-09-30T17:40:41.346Z,10.88
2022-09-30T17:46:06.253Z,7.15
2022-09-30T17:51:31.737Z,5.95
2022-09-30T17:56:57.181Z,8.90
2022-09-30T18:02:21.324Z,5.43
2022-09-30T18:07:47.749Z,13.25
2022-09-30T18:13:11.997Z,7.80
2022-09-30T18:18:37.259Z,10.50
2022-09-30T18:24:08.031Z,8.32
2022-09-30T18:29:33.596Z,9.10
2022-09-30T18:34:58.985Z,7.45
2022-09-30T18:40:27.018Z,9.02
2022-09-30T18:45:56.590Z,9.23
2022-09-30T18:51:21.545Z,13.70
2022-09-30T18:56:48.729Z,9.25
2022-09-30T19:02:15.777Z,11.85
2022-09-30T19:07:41.067Z,11.15
2022-09-30T19:13:06.317Z,8.85
2022-09-30T19:18:31.261Z,8.65
2022-09-30T19:23:58.333Z,15.43
2022-09-30T19:29:24.997Z,9.15
2022-09-30T19:35:00.108Z,16.70
2022-09-30T19:40:27.511Z,12.93
2022-09-30T19:45:57.070Z,14.15
2022-09-30T19:51:21.312Z,9.95
2022-09-30T19:56:45.928Z,11.05
2022-09-30T20:02:12.737Z,10.90
2022-09-30T20:07:36.812Z,13.18
2022-09-30T20:13:00.874Z,6.13
2022-09-30T20:18:26.365Z,7.05
2022-09-30T20:23:51.825Z,8.90
2022-09-30T20:29:18.411Z,13.70
2022-09-30T20:34:45.486Z,7.53
2022-09-30T20:40:10.886Z,8.40
2022-09-30T20:45:35.576Z,8.73
2022-09-30T20:51:01.954Z,7.25
2022-09-30T20:56:44.076Z,5.90
2022-09-30T21:02:14.168Z,11.27
2022-09-30T21:07:39.680Z,9.57
2022-09-30T21:13:10.141Z,9.32
2022-09-30T21:24:01.433Z,13.07
2022-09-30T21:29:27.199Z,10.57
2022-09-30T21:34:53.207Z,8.38
2022-09-30T21:40:20.053Z,9.82
2022-09-30T21:45:45.313Z,7.95
2022-09-30T21:51:10.723Z,8.25
2022-09-30T21:56:37.023Z,11.82
2022-09-30T22:02:01.825Z,13.05
2022-09-30T22:07:27.668Z,10.27
2022-09-30T22:12:53.508Z,14.65
2022-09-30T22:18:19.498Z,11.45
2022-09-30T22:23:46.840Z,11.25
2022-09-30T22:29:13.515Z,9.30
2022-09-30T22:35:09.839Z,5.82
2022-09-30T22:40:34.862Z,10.00
2022-09-30T22:46:05.331Z,9.23
2022-09-30T22:51:30.630Z,6.85
2022-09-30T22:56:55.331Z,9.02
2022-09-30T23:02:23.284Z,7.30
2022-09-30T23:07:48.508Z,7.95
2022-09-30T23:13:13.430Z,8.70
2022-09-30T23:18:41.398Z,13.15
2022-09-30T23:24:06.033Z,8.15
2022-09-30T23:29:31.118Z,11.55
2022-09-30T23:34:57.751Z,7.72
2022-09-30T23:40:22.274Z,8.30
2022-09-30T23:45:48.325Z,8.77
2022-09-30T23:51:15.080Z,9.43
2022-09-30T23:56:41.208Z,8.75
